createdAt,value
2019-01-13T00:00:01.687Z,6.6
2019-01-13T00:05:01.272Z,6.6
2019-01-13T00:10:01.502Z,6.6
2019-01-13T00:15:01.855Z,6.6
2019-01-13T00:20:01.760Z,6.6
2019-01-13T00:25:01.482Z,6.7
2019-01-13T00:30:01.906Z,6.7
2019-01-13T00:35:01.777Z,6.7
2019-01-13T00:40:01.915Z,6.8
2019-01-13T00:45:01.432Z,6.8
2019-01-13T00:50:01.601Z,6.8
2019-01-13T00:55:01.871Z,6.8
2019-01-13T01:00:01.642Z,6.8
2019-01-13T01:05:01.330Z,6.9
2019-01-13T01:10:02.131Z,6.9
2019-01-13T01:15:01.862Z,6.9
2019-01-13T01:20:01.426Z,6.9
2019-01-13T01:25:01.445Z,6.9
2019-01-13T01:30:01.740Z,6.9
2019-01-13T01:35:02.191Z,6.8
2019-01-13T01:40:02.207Z,6.8
2019-01-13T01:45:02.132Z,6.8
2019-01-13T01:50:01.264Z,6.8
2019-01-13T01:55:01.736Z,6.8
2019-01-13T02:00:01.869Z,6.9
2019-01-13T02:05:01.375Z,6.8
2019-01-13T02:10:01.982Z,6.8
2019-01-13T02:15:02.335Z,6.8
2019-01-13T02:20:01.555Z,6.9
2019-01-13T02:25:01.203Z,6.9
2019-01-13T02:30:02.054Z,6.9
2019-01-13T02:35:01.385Z,7
2019-01-13T02:40:01.343Z,7
2019-01-13T02:45:01.743Z,7
2019-01-13T02:50:01.890Z,7.1
2019-01-13T02:55:01.464Z,7.1
2019-01-13T03:00:01.857Z,7.1
2019-01-13T03:05:02.227Z,7.1
2019-01-13T03:10:01.430Z,7.1
2019-01-13T03:15:01.207Z,7.1
2019-01-13T03:20:01.511Z,7.1
2019-01-13T03:25:01.342Z,7.1
2019-01-13T03:30:01.367Z,7.1
2019-01-13T03:35:01.513Z,7.1
2019-01-13T03:40:01.759Z,7.1
2019-01-13T03:45:01.600Z,7.1
2019-01-13T03:50:01.500Z,7.1
2019-01-13T03:55:02.482Z,7.1
2019-01-13T04:00:01.861Z,7.1
2019-01-13T04:05:01.841Z,7.1
2019-01-13T04:10:02.019Z,7.1
2019-01-13T04:15:01.392Z,7.1
2019-01-13T04:20:01.558Z,7.1
2019-01-13T04:25:02.060Z,7.1
2019-01-13T04:30:01.670Z,7
2019-01-13T04:35:01.768Z,7
2019-01-13T04:40:02.110Z,7
2019-01-13T04:45:01.987Z,7
2019-01-13T04:50:01.664Z,7
2019-01-13T04:55:02.015Z,7.1
2019-01-13T05:00:01.669Z,7.1
2019-01-13T05:05:01.390Z,7.1
2019-01-13T05:10:01.928Z,7.1
2019-01-13T05:15:01.544Z,7.1
2019-01-13T05:20:02.046Z,7.1
2019-01-13T05:25:01.743Z,7.1
2019-01-13T05:30:01.170Z,7
2019-01-13T05:35:01.630Z,7
2019-01-13T05:40:02.142Z,7
2019-01-13T05:45:01.856Z,7
2019-01-13T05:50:01.625Z,7
2019-01-13T05:55:01.223Z,7
2019-01-13T06:00:01.598Z,7.1
2019-01-13T06:05:01.159Z,7.1
2019-01-13T06:10:01.396Z,7.1
2019-01-13T06:15:02.251Z,7.2
2019-01-13T06:20:01.826Z,7.2
2019-01-13T06:25:01.831Z,7.2
2019-01-13T06:30:01.494Z,7.2
2019-01-13T06:35:01.491Z,7.2
2019-01-13T06:40:01.457Z,7.2
2019-01-13T06:45:01.464Z,7.2
2019-01-13T06:50:01.687Z,7.2
2019-01-13T06:55:01.857Z,7.3
2019-01-13T07:00:02.096Z,7.3
2019-01-13T07:05:01.255Z,7.3
2019-01-13T07:10:01.863Z,7.3
2019-01-13T07:15:01.257Z,7.3
2019-01-13T07:20:01.318Z,7.3
2019-01-13T07:25:01.523Z,7.3
2019-01-13T07:30:01.244Z,7.3
2019-01-13T07:35:01.221Z,7.4
2019-01-13T07:40:01.448Z,7.3
2019-01-13T07:45:01.351Z,7.3
2019-01-13T07:50:01.427Z,7.3
2019-01-13T07:55:01.439Z,7.3
2019-01-13T08:00:01.399Z,7.3
2019-01-13T08:05:01.794Z,7.3
2019-01-13T08:10:01.760Z,7.3
2019-01-13T08:15:01.748Z,7.4
2019-01-13T08:20:01.216Z,7.4
2019-01-13T08:25:02.016Z,7.4
2019-01-13T08:30:01.279Z,7.4
2019-01-13T08:35:01.512Z,7.4
2019-01-13T08:40:01.620Z,7.4
2019-01-13T08:45:01.963Z,7.5
2019-01-13T08:50:01.791Z,7.5
2019-01-13T08:55:01.474Z,7.6
2019-01-13T09:00:01.629Z,7.6
2019-01-13T09:05:01.464Z,7.6
2019-01-13T09:10:02.362Z,7.7
2019-01-13T09:15:01.446Z,7.7
2019-01-13T09:20:01.483Z,7.7
2019-01-13T09:25:01.686Z,7.8
2019-01-13T09:30:01.992Z,7.8
2019-01-13T09:35:01.140Z,7.8
2019-01-13T09:40:01.325Z,7.8
2019-01-13T09:45:02.119Z,7.9
2019-01-13T09:50:02.145Z,8
2019-01-13T09:55:01.996Z,8
2019-01-13T10:00:01.695Z,8.1
2019-01-13T10:05:02.278Z,8.2
2019-01-13T10:10:01.238Z,8.2
2019-01-13T10:15:01.492Z,8.3
2019-01-13T10:20:01.247Z,8.4
2019-01-13T10:25:01.759Z,8.5
2019-01-13T10:30:01.752Z,8.6
2019-01-13T10:35:01.510Z,8.6
2019-01-13T10:40:01.462Z,8.7
2019-01-13T10:45:01.270Z,8.7
2019-01-13T10:50:01.289Z,8.8
2019-01-13T10:55:01.475Z,8.8
2019-01-13T11:00:01.755Z,8.9
2019-01-13T11:05:01.431Z,9
2019-01-13T11:10:02.074Z,9
2019-01-13T11:15:01.187Z,9.1
2019-01-13T11:20:01.821Z,9.1
2019-01-13T11:25:01.292Z,9.1
2019-01-13T11:30:01.749Z,9.2
2019-01-13T11:35:02.147Z,9.2
2019-01-13T11:40:01.931Z,9.3
2019-01-13T11:45:01.474Z,9.3
2019-01-13T11:50:01.721Z,9.3
2019-01-13T11:55:01.725Z,9.3
2019-01-13T12:00:02.039Z,9.3
2019-01-13T12:05:01.826Z,9.3
2019-01-13T12:10:01.833Z,9.3
2019-01-13T12:15:01.640Z,9.4
2019-01-13T12:20:01.352Z,9.3
2019-01-13T12:25:01.687Z,9.3
2019-01-13T12:30:01.698Z,9.4
2019-01-13T12:35:02.005Z,9.4
2019-01-13T12:40:01.908Z,9.4
2019-01-13T12:45:01.436Z,9.4
2019-01-13T12:50:01.256Z,9.4
2019-01-13T12:55:01.892Z,9.5
2019-01-13T13:00:01.428Z,9.4
2019-01-13T13:05:01.191Z,9.4
2019-01-13T13:10:01.224Z,9.4
2019-01-13T13:15:02.018Z,9.4
2019-01-13T13:20:01.605Z,9.4
2019-01-13T13:25:01.785Z,9.3
2019-01-13T13:30:01.576Z,9.3
2019-01-13T13:35:01.180Z,9.3
2019-01-13T13:40:01.940Z,9.3
2019-01-13T13:45:01.727Z,9.4
2019-01-13T13:50:01.676Z,9.4
2019-01-13T13:55:01.545Z,9.4
2019-01-13T14:00:02.125Z,9.4
2019-01-13T14:05:02.044Z,9.3
2019-01-13T14:10:01.945Z,9.3
2019-01-13T14:15:01.951Z,9.3
2019-01-13T14:20:01.868Z,9.2
2019-01-13T14:25:02.036Z,9.2
2019-01-13T14:30:01.388Z,9.2
2019-01-13T14:35:01.699Z,9.2
2019-01-13T14:40:01.343Z,9.2
2019-01-13T14:45:02.140Z,9.2
2019-01-13T14:50:02.372Z,9.2
2019-01-13T14:55:01.423Z,9.3
2019-01-13T15:00:01.786Z,9.3
2019-01-13T15:05:02.181Z,9.2
2019-01-13T15:10:02.130Z,9.1
2019-01-13T15:15:01.657Z,9
2019-01-13T15:20:01.531Z,8.9
2019-01-13T15:25:02.209Z,8.9
2019-01-13T15:30:02.114Z,8.7
2019-01-13T15:35:01.178Z,8.7
2019-01-13T15:40:02.487Z,8.7
2019-01-13T15:45:01.944Z,8.5
2019-01-13T15:50:01.530Z,8.5
2019-01-13T15:55:01.290Z,8.4
2019-01-13T16:00:02.110Z,8.4
2019-01-13T16:05:02.125Z,8.4
2019-01-13T16:10:02.187Z,8.4
2019-01-13T16:15:01.960Z,8.4
2019-01-13T16:20:02.042Z,8.3
2019-01-13T16:25:02.020Z,8.3
2019-01-13T16:30:01.675Z,8.2
2019-01-13T16:35:01.934Z,8.1
2019-01-13T16:40:02.037Z,8
2019-01-13T16:45:01.555Z,8
2019-01-13T16:50:02.034Z,7.9
2019-01-13T16:55:01.747Z,7.9
2019-01-13T17:00:01.725Z,7.9
2019-01-13T17:05:02.116Z,7.9
2019-01-13T17:10:01.138Z,7.9
2019-01-13T17:15:02.097Z,7.9
2019-01-13T17:20:01.902Z,7.9
2019-01-13T17:25:01.297Z,7.9
2019-01-13T17:30:01.704Z,7.9
2019-01-13T17:35:01.825Z,7.9
2019-01-13T17:40:01.806Z,7.9
2019-01-13T17:45:01.140Z,7.9
2019-01-13T17:50:01.216Z,8
2019-01-13T17:55:01.532Z,8
2019-01-13T18:00:01.814Z,8
2019-01-13T18:05:01.727Z,8
2019-01-13T18:10:02.095Z,7.9
2019-01-13T18:15:02.000Z,7.9
2019-01-13T18:20:01.472Z,7.8
2019-01-13T18:25:01.983Z,7.8
2019-01-13T18:30:01.696Z,7.8
2019-01-13T18:35:02.047Z,7.8
2019-01-13T18:40:01.647Z,7.8
2019-01-13T18:45:01.904Z,7.8
2019-01-13T18:50:01.568Z,7.8
2019-01-13T18:55:01.831Z,7.8
2019-01-13T19:00:01.766Z,7.8
2019-01-13T19:05:01.350Z,7.7
2019-01-13T19:10:02.272Z,7.5
2019-01-13T19:15:01.956Z,7.5
2019-01-13T19:20:01.317Z,7.5
2019-01-13T19:25:01.409Z,7.5
2019-01-13T19:30:02.015Z,7.4
2019-01-13T19:35:04.583Z,7.4
2019-01-13T19:40:01.598Z,7.3
2019-01-13T19:45:01.808Z,7.3
2019-01-13T19:50:02.008Z,7.3
2019-01-13T19:55:02.000Z,7.3
2019-01-13T20:00:01.244Z,7.3
2019-01-13T20:05:02.067Z,7.3
2019-01-13T20:10:01.244Z,7.3
2019-01-13T20:15:01.951Z,7.3
2019-01-13T20:20:02.342Z,7.2
2019-01-13T20:25:01.526Z,7.2
2019-01-13T20:30:01.453Z,7.1
2019-01-13T20:35:02.003Z,7
2019-01-13T20:40:02.300Z,7
2019-01-13T20:45:01.991Z,6.9
2019-01-13T20:50:02.130Z,6.8
2019-01-13T20:55:01.262Z,6.8
2019-01-13T21:00:02.108Z,6.6
2019-01-13T21:05:01.752Z,6.5
2019-01-13T21:10:02.381Z,6.4
2019-01-13T21:15:01.746Z,6.3
2019-01-13T21:20:02.141Z,6.2
2019-01-13T21:25:01.544Z,6.2
2019-01-13T21:30:02.069Z,6.2
2019-01-13T21:35:02.338Z,6.1
2019-01-13T21:40:01.953Z,6.1
2019-01-13T21:45:01.791Z,6.1
2019-01-13T21:50:02.117Z,6.1
2019-01-13T21:55:01.539Z,6
2019-01-13T22:00:02.062Z,6
2019-01-13T22:05:01.683Z,6
2019-01-13T22:10:02.280Z,5.9
2019-01-13T22:15:01.967Z,5.9
2019-01-13T22:20:01.556Z,5.9
2019-01-13T22:25:02.236Z,5.9
2019-01-13T22:30:01.778Z,5.9
2019-01-13T22:35:01.514Z,5.8
2019-01-13T22:40:02.426Z,5.8
2019-01-13T22:45:02.020Z,5.7
2019-01-13T22:50:02.004Z,5.7
2019-01-13T22:55:01.257Z,5.7
2019-01-13T23:00:02.275Z,5.7
2019-01-13T23:05:01.861Z,5.5
2019-01-13T23:10:01.990Z,5.4
2019-01-13T23:15:01.565Z,5.4
2019-01-13T23:20:01.778Z,5.3
2019-01-13T23:25:02.083Z,5.3
2019-01-13T23:30:01.817Z,5.2
2019-01-13T23:35:02.060Z,5.1
2019-01-13T23:40:01.511Z,5.1
2019-01-13T23:45:01.774Z,5.1
2019-01-13T23:50:01.775Z,5
2019-01-13T23:55:01.988Z,4.9
